Philadelphia, Pennsylvania
Current Conditions -  °F | °C
As of 12:54 PM on Tuesday 27 Jan 2015 (Local Time) from KPHL Reporting Station
Broken Clouds Broken Clouds  
Wind Chill: 21°   Ceiling: 4500
Heat Index: 32°   Visibility: 10mi
Dew Point: 13°   Wind: 16mph
Humidity: 45%   Direction: 340°NNW
Pressure: 29.72"   Gusts: 25mph
Location:  39.95°N, 75.16°W
Report Text: KPHL 271754Z 34014G22KT 10SM SCT040 BKN045 00/M11 A2972 RMK AO2 SLP064 60001 T00001106 10000 21033 58018
Loading
Personal Weather Stations






























Interactive Weather Map New forecast layout! Learn more

10-Day Weather Forecast

Advertisements
Track Severe Weather on mobile